sensor_id;sensor_type;location;lat;lon;timestamp;temperature;humidity
58153;DHT22;43967;51.634;5.566;2022-11-20T00:03:04;18.30;54.80
58153;DHT22;43967;51.634;5.566;2022-11-20T00:08:05;18.30;54.70
58153;DHT22;43967;51.634;5.566;2022-11-20T00:13:07;18.30;54.60
58153;DHT22;43967;51.634;5.566;2022-11-20T00:18:08;18.20;54.60
58153;DHT22;43967;51.634;5.566;2022-11-20T00:23:09;18.20;54.50
58153;DHT22;43967;51.634;5.566;2022-11-20T00:28:11;18.20;55.10
58153;DHT22;43967;51.634;5.566;2022-11-20T00:33:12;18.20;54.30
58153;DHT22;43967;51.634;5.566;2022-11-20T00:38:13;18.20;54.40
58153;DHT22;43967;51.634;5.566;2022-11-20T00:43:14;18.20;54.30
58153;DHT22;43967;51.634;5.566;2022-11-20T00:48:15;18.20;54.30
58153;DHT22;43967;51.634;5.566;2022-11-20T00:53:16;18.20;54.20
58153;DHT22;43967;51.634;5.566;2022-11-20T00:58:17;18.10;54.10
58153;DHT22;43967;51.634;5.566;2022-11-20T01:03:18;18.10;54.10
58153;DHT22;43967;51.634;5.566;2022-11-20T01:08:20;18.10;54.00
58153;DHT22;43967;51.634;5.566;2022-11-20T01:13:21;18.10;53.90
58153;DHT22;43967;51.634;5.566;2022-11-20T01:18:22;18.10;53.90
58153;DHT22;43967;51.634;5.566;2022-11-20T01:23:23;18.10;53.90
58153;DHT22;43967;51.634;5.566;2022-11-20T01:28:24;18.10;53.90
58153;DHT22;43967;51.634;5.566;2022-11-20T01:33:25;18.10;53.80
58153;DHT22;43967;51.634;5.566;2022-11-20T01:38:27;18.10;53.80
58153;DHT22;43967;51.634;5.566;2022-11-20T01:43:28;18.10;53.80
58153;DHT22;43967;51.634;5.566;2022-11-20T01:53:44;18.00;53.70
58153;DHT22;43967;51.634;5.566;2022-11-20T01:58:53;18.00;54.30
58153;DHT22;43967;51.634;5.566;2022-11-20T02:03:57;18.00;53.60
58153;DHT22;43967;51.634;5.566;2022-11-20T02:08:59;18.00;53.50
58153;DHT22;43967;51.634;5.566;2022-11-20T02:14:00;18.00;53.50
58153;DHT22;43967;51.634;5.566;2022-11-20T02:19:02;18.00;53.40
58153;DHT22;43967;51.634;5.566;2022-11-20T02:24:07;18.00;53.40
58153;DHT22;43967;51.634;5.566;2022-11-20T02:29:09;18.00;53.40
58153;DHT22;43967;51.634;5.566;2022-11-20T02:34:10;17.90;53.20
58153;DHT22;43967;51.634;5.566;2022-11-20T02:39:11;17.90;53.10
58153;DHT22;43967;51.634;5.566;2022-11-20T02:44:13;17.90;53.10
58153;DHT22;43967;51.634;5.566;2022-11-20T02:49:14;17.90;53.10
58153;DHT22;43967;51.634;5.566;2022-11-20T02:54:15;17.90;53.00
58153;DHT22;43967;51.634;5.566;2022-11-20T02:59:16;17.90;52.90
58153;DHT22;43967;51.634;5.566;2022-11-20T03:04:17;17.90;52.90
58153;DHT22;43967;51.634;5.566;2022-11-20T03:09:19;17.90;52.90
58153;DHT22;43967;51.634;5.566;2022-11-20T03:14:20;17.90;52.90
58153;DHT22;43967;51.634;5.566;2022-11-20T03:19:21;17.90;52.80
58153;DHT22;43967;51.634;5.566;2022-11-20T03:24:22;17.80;52.70
58153;DHT22;43967;51.634;5.566;2022-11-20T03:29:23;17.80;52.70
58153;DHT22;43967;51.634;5.566;2022-11-20T03:34:24;17.80;53.30
58153;DHT22;43967;51.634;5.566;2022-11-20T03:39:25;17.90;52.60
58153;DHT22;43967;51.634;5.566;2022-11-20T03:44:26;17.80;52.50
58153;DHT22;43967;51.634;5.566;2022-11-20T03:49:27;17.80;52.50
58153;DHT22;43967;51.634;5.566;2022-11-20T03:54:28;17.80;52.40
58153;DHT22;43967;51.634;5.566;2022-11-20T03:59:29;17.80;52.40
58153;DHT22;43967;51.634;5.566;2022-11-20T04:04:30;17.80;52.30
58153;DHT22;43967;51.634;5.566;2022-11-20T04:09:32;17.80;52.30
58153;DHT22;43967;51.634;5.566;2022-11-20T04:14:33;17.80;52.30
58153;DHT22;43967;51.634;5.566;2022-11-20T04:19:34;17.80;52.20
58153;DHT22;43967;51.634;5.566;2022-11-20T04:24:35;17.80;52.30
58153;DHT22;43967;51.634;5.566;2022-11-20T04:29:36;17.70;52.20
58153;DHT22;43967;51.634;5.566;2022-11-20T04:34:38;17.70;52.10
58153;DHT22;43967;51.634;5.566;2022-11-20T04:39:39;17.70;52.10
58153;DHT22;43967;51.634;5.566;2022-11-20T04:44:40;17.70;52.10
58153;DHT22;43967;51.634;5.566;2022-11-20T04:49:41;17.70;52.10
58153;DHT22;43967;51.634;5.566;2022-11-20T04:54:42;17.70;52.10
58153;DHT22;43967;51.634;5.566;2022-11-20T04:59:43;17.70;52.00
58153;DHT22;43967;51.634;5.566;2022-11-20T05:04:44;17.70;51.90
58153;DHT22;43967;51.634;5.566;2022-11-20T05:09:45;17.70;52.00
58153;DHT22;43967;51.634;5.566;2022-11-20T05:14:47;17.60;51.80
58153;DHT22;43967;51.634;5.566;2022-11-20T05:19:48;17.60;51.80
58153;DHT22;43967;51.634;5.566;2022-11-20T05:24:49;17.70;51.80
58153;DHT22;43967;51.634;5.566;2022-11-20T05:29:50;17.60;51.80
58153;DHT22;43967;51.634;5.566;2022-11-20T05:34:52;17.60;51.80
58153;DHT22;43967;51.634;5.566;2022-11-20T05:39:53;17.60;51.80
58153;DHT22;43967;51.634;5.566;2022-11-20T05:44:54;17.60;51.80
58153;DHT22;43967;51.634;5.566;2022-11-20T05:49:55;17.60;51.80
58153;DHT22;43967;51.634;5.566;2022-11-20T05:54:56;17.60;51.70
58153;DHT22;43967;51.634;5.566;2022-11-20T05:59:57;17.60;51.70
58153;DHT22;43967;51.634;5.566;2022-11-20T06:04:58;17.60;51.70
58153;DHT22;43967;51.634;5.566;2022-11-20T06:09:59;17.60;51.70
58153;DHT22;43967;51.634;5.566;2022-11-20T06:15:00;17.60;51.70
58153;DHT22;43967;51.634;5.566;2022-11-20T06:20:02;17.50;51.60
58153;DHT22;43967;51.634;5.566;2022-11-20T06:25:03;17.50;51.60
58153;DHT22;43967;51.634;5.566;2022-11-20T06:30:05;17.50;51.60
58153;DHT22;43967;51.634;5.566;2022-11-20T06:35:06;17.50;51.60
58153;DHT22;43967;51.634;5.566;2022-11-20T06:40:08;17.50;51.60
58153;DHT22;43967;51.634;5.566;2022-11-20T06:45:09;17.50;51.80
58153;DHT22;43967;51.634;5.566;2022-11-20T06:50:11;17.50;51.60
58153;DHT22;43967;51.634;5.566;2022-11-20T06:55:12;17.50;52.40
58153;DHT22;43967;51.634;5.566;2022-11-20T07:00:13;17.50;51.70
58153;DHT22;43967;51.634;5.566;2022-11-20T07:05:14;17.50;51.60
58153;DHT22;43967;51.634;5.566;2022-11-20T07:10:15;17.50;51.70
58153;DHT22;43967;51.634;5.566;2022-11-20T07:15:18;17.50;51.60
58153;DHT22;43967;51.634;5.566;2022-11-20T07:20:19;17.50;51.70
58153;DHT22;43967;51.634;5.566;2022-11-20T07:25:20;17.40;51.60
58153;DHT22;43967;51.634;5.566;2022-11-20T07:30:21;17.40;51.60
58153;DHT22;43967;51.634;5.566;2022-11-20T07:35:23;17.40;51.60
58153;DHT22;43967;51.634;5.566;2022-11-20T07:40:24;17.50;51.70
58153;DHT22;43967;51.634;5.566;2022-11-20T07:45:26;17.40;51.60
58153;DHT22;43967;51.634;5.566;2022-11-20T07:50:27;17.40;51.70
58153;DHT22;43967;51.634;5.566;2022-11-20T07:55:28;17.50;51.90
58153;DHT22;43967;51.634;5.566;2022-11-20T08:00:29;17.40;52.10
58153;DHT22;43967;51.634;5.566;2022-11-20T08:05:30;17.50;54.90
58153;DHT22;43967;51.634;5.566;2022-11-20T08:10:31;17.60;54.10
58153;DHT22;43967;51.634;5.566;2022-11-20T08:15:32;17.70;56.40
58153;DHT22;43967;51.634;5.566;2022-11-20T08:20:34;17.70;56.20
58153;DHT22;43967;51.634;5.566;2022-11-20T08:25:37;17.80;56.00
58153;DHT22;43967;51.634;5.566;2022-11-20T08:30:38;17.80;55.30
58153;DHT22;43967;51.634;5.566;2022-11-20T08:35:39;17.90;54.90
58153;DHT22;43967;51.634;5.566;2022-11-20T08:40:40;18.00;54.80
58153;DHT22;43967;51.634;5.566;2022-11-20T08:45:41;18.10;56.70
58153;DHT22;43967;51.634;5.566;2022-11-20T08:50:42;18.30;60.10
58153;DHT22;43967;51.634;5.566;2022-11-20T08:55:43;18.40;60.80
58153;DHT22;43967;51.634;5.566;2022-11-20T09:00:45;18.50;59.50
58153;DHT22;43967;51.634;5.566;2022-11-20T09:05:46;18.30;58.20
58153;DHT22;43967;51.634;5.566;2022-11-20T09:10:51;18.50;58.10
58153;DHT22;43967;51.634;5.566;2022-11-20T09:15:57;18.70;57.70
58153;DHT22;43967;51.634;5.566;2022-11-20T09:21:00;18.50;57.30
58153;DHT22;43967;51.634;5.566;2022-11-20T09:26:05;18.50;57.00
58153;DHT22;43967;51.634;5.566;2022-11-20T09:31:24;18.40;56.80
58153;DHT22;43967;51.634;5.566;2022-11-20T09:36:25;18.60;56.90
58153;DHT22;43967;51.634;5.566;2022-11-20T09:41:34;18.30;53.70
58153;DHT22;43967;51.634;5.566;2022-11-20T09:47:04;18.50;56.30
58153;DHT22;43967;51.634;5.566;2022-11-20T09:57:29;18.20;52.80
58153;DHT22;43967;51.634;5.566;2022-11-20T10:08:31;18.50;55.40
58153;DHT22;43967;51.634;5.566;2022-11-20T10:24:56;18.50;54.80
58153;DHT22;43967;51.634;5.566;2022-11-20T10:30:14;18.50;54.90
58153;DHT22;43967;51.634;5.566;2022-11-20T10:35:19;18.50;54.90
58153;DHT22;43967;51.634;5.566;2022-11-20T10:40:44;18.50;54.80
58153;DHT22;43967;51.634;5.566;2022-11-20T10:46:09;18.40;54.60
58153;DHT22;43967;51.634;5.566;2022-11-20T11:01:45;18.10;53.90
58153;DHT22;43967;51.634;5.566;2022-11-20T11:06:48;18.20;53.60
58153;DHT22;43967;51.634;5.566;2022-11-20T11:11:49;18.40;53.30
58153;DHT22;43967;51.634;5.566;2022-11-20T11:16:55;18.40;53.20
58153;DHT22;43967;51.634;5.566;2022-11-20T11:21:57;18.50;53.20
58153;DHT22;43967;51.634;5.566;2022-11-20T11:27:00;18.50;53.90
58153;DHT22;43967;51.634;5.566;2022-11-20T11:32:06;18.50;53.10
58153;DHT22;43967;51.634;5.566;2022-11-20T11:37:18;18.60;53.20
58153;DHT22;43967;51.634;5.566;2022-11-20T11:42:20;18.50;53.10
58153;DHT22;43967;51.634;5.566;2022-11-20T11:47:26;18.50;53.70
58153;DHT22;43967;51.634;5.566;2022-11-20T11:52:31;18.60;53.80
58153;DHT22;43967;51.634;5.566;2022-11-20T11:57:42;18.70;53.90
58153;DHT22;43967;51.634;5.566;2022-11-20T12:08:00;18.80;54.00
58153;DHT22;43967;51.634;5.566;2022-11-20T12:13:17;18.90;54.60
58153;DHT22;43967;51.634;5.566;2022-11-20T12:18:22;18.60;53.90
58153;DHT22;43967;51.634;5.566;2022-11-20T12:39:53;18.80;54.30
58153;DHT22;43967;51.634;5.566;2022-11-20T12:45:05;18.90;54.50
58153;DHT22;43967;51.634;5.566;2022-11-20T12:55:46;18.90;54.90
58153;DHT22;43967;51.634;5.566;2022-11-20T13:01:25;19.00;55.20
58153;DHT22;43967;51.634;5.566;2022-11-20T13:06:28;19.00;55.50
58153;DHT22;43967;51.634;5.566;2022-11-20T13:16:41;19.10;56.20
58153;DHT22;43967;51.634;5.566;2022-11-20T13:21:48;19.10;56.40
58153;DHT22;43967;51.634;5.566;2022-11-20T13:32:26;19.10;56.60
58153;DHT22;43967;51.634;5.566;2022-11-20T13:37:35;19.10;56.90
58153;DHT22;43967;51.634;5.566;2022-11-20T13:42:46;19.10;55.60
58153;DHT22;43967;51.634;5.566;2022-11-20T13:47:53;18.70;56.80
58153;DHT22;43967;51.634;5.566;2022-11-20T14:03:38;19.00;57.00
58153;DHT22;43967;51.634;5.566;2022-11-20T14:08:46;19.00;57.60
58153;DHT22;43967;51.634;5.566;2022-11-20T14:18:57;19.00;58.60
58153;DHT22;43967;51.634;5.566;2022-11-20T14:24:05;19.00;58.20
58153;DHT22;43967;51.634;5.566;2022-11-20T14:29:14;18.90;58.40
58153;DHT22;43967;51.634;5.566;2022-11-20T14:34:21;19.00;59.00
58153;DHT22;43967;51.634;5.566;2022-11-20T14:39:32;18.90;59.20
58153;DHT22;43967;51.634;5.566;2022-11-20T14:44:34;18.90;59.30
58153;DHT22;43967;51.634;5.566;2022-11-20T14:49:36;18.70;60.20
58153;DHT22;43967;51.634;5.566;2022-11-20T14:54:45;18.80;60.00
58153;DHT22;43967;51.634;5.566;2022-11-20T14:59:46;18.90;60.30
58153;DHT22;43967;51.634;5.566;2022-11-20T15:04:57;19.00;60.90
58153;DHT22;43967;51.634;5.566;2022-11-20T15:10:10;19.00;60.90
58153;DHT22;43967;51.634;5.566;2022-11-20T15:15:12;18.90;61.70
58153;DHT22;43967;51.634;5.566;2022-11-20T15:20:16;18.90;61.80
58153;DHT22;43967;51.634;5.566;2022-11-20T15:25:18;18.90;62.00
58153;DHT22;43967;51.634;5.566;2022-11-20T15:30:20;18.80;62.60
58153;DHT22;43967;51.634;5.566;2022-11-20T15:35:21;18.90;62.60
58153;DHT22;43967;51.634;5.566;2022-11-20T15:40:22;18.90;63.10
58153;DHT22;43967;51.634;5.566;2022-11-20T15:45:23;18.80;61.30
58153;DHT22;43967;51.634;5.566;2022-11-20T15:50:29;18.90;61.60
58153;DHT22;43967;51.634;5.566;2022-11-20T15:55:32;18.90;61.10
58153;DHT22;43967;51.634;5.566;2022-11-20T16:00:33;18.90;61.30
58153;DHT22;43967;51.634;5.566;2022-11-20T16:05:34;18.90;62.10
58153;DHT22;43967;51.634;5.566;2022-11-20T16:10:35;18.90;63.10
58153;DHT22;43967;51.634;5.566;2022-11-20T16:15:36;18.90;62.60
58153;DHT22;43967;51.634;5.566;2022-11-20T16:20:38;18.90;62.40
58153;DHT22;43967;51.634;5.566;2022-11-20T16:25:39;18.90;62.70
58153;DHT22;43967;51.634;5.566;2022-11-20T16:30:40;18.90;62.90
58153;DHT22;43967;51.634;5.566;2022-11-20T16:35:41;18.90;63.30
58153;DHT22;43967;51.634;5.566;2022-11-20T16:40:42;18.90;63.00
58153;DHT22;43967;51.634;5.566;2022-11-20T16:45:44;19.10;63.90
58153;DHT22;43967;51.634;5.566;2022-11-20T16:50:50;19.00;63.10
58153;DHT22;43967;51.634;5.566;2022-11-20T16:55:51;19.00;64.20
58153;DHT22;43967;51.634;5.566;2022-11-20T17:00:52;19.00;64.70
58153;DHT22;43967;51.634;5.566;2022-11-20T17:05:54;18.90;64.70
58153;DHT22;43967;51.634;5.566;2022-11-20T17:10:55;19.00;64.10
58153;DHT22;43967;51.634;5.566;2022-11-20T17:16:00;19.00;64.80
58153;DHT22;43967;51.634;5.566;2022-11-20T17:21:02;19.10;64.80
58153;DHT22;43967;51.634;5.566;2022-11-20T17:26:12;19.10;65.90
58153;DHT22;43967;51.634;5.566;2022-11-20T17:31:15;19.10;65.90
58153;DHT22;43967;51.634;5.566;2022-11-20T17:36:17;19.10;66.10
58153;DHT22;43967;51.634;5.566;2022-11-20T17:41:21;19.10;66.40
58153;DHT22;43967;51.634;5.566;2022-11-20T17:46:25;19.20;66.80
58153;DHT22;43967;51.634;5.566;2022-11-20T17:51:29;19.30;66.20
58153;DHT22;43967;51.634;5.566;2022-11-20T17:56:32;19.30;66.40
58153;DHT22;43967;51.634;5.566;2022-11-20T18:01:33;19.30;66.60
58153;DHT22;43967;51.634;5.566;2022-11-20T18:06:34;19.30;66.80
58153;DHT22;43967;51.634;5.566;2022-11-20T18:11:38;19.30;67.00
58153;DHT22;43967;51.634;5.566;2022-11-20T18:16:45;19.30;67.60
58153;DHT22;43967;51.634;5.566;2022-11-20T18:21:46;19.20;67.50
58153;DHT22;43967;51.634;5.566;2022-11-20T18:26:47;19.20;67.40
58153;DHT22;43967;51.634;5.566;2022-11-20T18:31:49;19.20;67.00
58153;DHT22;43967;51.634;5.566;2022-11-20T18:36:50;19.40;67.00
58153;DHT22;43967;51.634;5.566;2022-11-20T18:41:52;19.60;67.00
58153;DHT22;43967;51.634;5.566;2022-11-20T18:46:53;19.50;66.90
58153;DHT22;43967;51.634;5.566;2022-11-20T18:51:54;19.60;66.70
58153;DHT22;43967;51.634;5.566;2022-11-20T18:56:55;19.50;66.70
58153;DHT22;43967;51.634;5.566;2022-11-20T19:01:56;19.50;66.80
58153;DHT22;43967;51.634;5.566;2022-11-20T19:06:57;19.50;66.90
58153;DHT22;43967;51.634;5.566;2022-11-20T19:11:58;19.50;66.80
58153;DHT22;43967;51.634;5.566;2022-11-20T19:16:59;19.50;67.00
58153;DHT22;43967;51.634;5.566;2022-11-20T19:22:01;19.40;67.00
58153;DHT22;43967;51.634;5.566;2022-11-20T19:27:02;19.40;67.10
58153;DHT22;43967;51.634;5.566;2022-11-20T19:32:03;19.40;67.10
58153;DHT22;43967;51.634;5.566;2022-11-20T19:37:05;19.40;67.10
58153;DHT22;43967;51.634;5.566;2022-11-20T19:42:06;19.20;67.00
58153;DHT22;43967;51.634;5.566;2022-11-20T19:47:07;19.20;68.00
58153;DHT22;43967;51.634;5.566;2022-11-20T19:52:08;19.10;67.90
58153;DHT22;43967;51.634;5.566;2022-11-20T19:57:09;19.00;67.30
58153;DHT22;43967;51.634;5.566;2022-11-20T20:02:10;19.00;67.80
58153;DHT22;43967;51.634;5.566;2022-11-20T20:07:11;19.00;67.70
58153;DHT22;43967;51.634;5.566;2022-11-20T20:12:12;19.00;67.50
58153;DHT22;43967;51.634;5.566;2022-11-20T20:17:13;18.90;67.60
58153;DHT22;43967;51.634;5.566;2022-11-20T20:22:14;18.90;68.00
58153;DHT22;43967;51.634;5.566;2022-11-20T20:27:16;18.90;68.00
58153;DHT22;43967;51.634;5.566;2022-11-20T20:32:17;18.90;68.10
58153;DHT22;43967;51.634;5.566;2022-11-20T20:37:18;18.90;68.10
58153;DHT22;43967;51.634;5.566;2022-11-20T20:42:19;18.80;67.80
58153;DHT22;43967;51.634;5.566;2022-11-20T20:47:20;18.80;67.70
58153;DHT22;43967;51.634;5.566;2022-11-20T20:52:21;18.80;67.10
58153;DHT22;43967;51.634;5.566;2022-11-20T20:57:23;18.80;67.20
58153;DHT22;43967;51.634;5.566;2022-11-20T21:02:24;18.80;66.90
58153;DHT22;43967;51.634;5.566;2022-11-20T21:07:25;18.70;66.60
58153;DHT22;43967;51.634;5.566;2022-11-20T21:12:26;18.70;66.40
58153;DHT22;43967;51.634;5.566;2022-11-20T21:17:27;18.70;66.10
58153;DHT22;43967;51.634;5.566;2022-11-20T21:22:28;18.80;65.60
58153;DHT22;43967;51.634;5.566;2022-11-20T21:27:30;18.80;65.40
58153;DHT22;43967;51.634;5.566;2022-11-20T21:32:31;18.80;65.20
58153;DHT22;43967;51.634;5.566;2022-11-20T21:37:32;18.80;65.10
58153;DHT22;43967;51.634;5.566;2022-11-20T21:42:33;18.80;65.00
58153;DHT22;43967;51.634;5.566;2022-11-20T21:47:34;18.80;64.80
58153;DHT22;43967;51.634;5.566;2022-11-20T21:52:35;18.80;64.60
58153;DHT22;43967;51.634;5.566;2022-11-20T21:57:36;18.80;64.50
58153;DHT22;43967;51.634;5.566;2022-11-20T22:02:38;18.80;64.50
58153;DHT22;43967;51.634;5.566;2022-11-20T22:07:42;18.80;64.40
58153;DHT22;43967;51.634;5.566;2022-11-20T22:12:44;18.80;64.30
58153;DHT22;43967;51.634;5.566;2022-11-20T22:17:45;18.80;64.20
58153;DHT22;43967;51.634;5.566;2022-11-20T22:22:46;18.80;64.10
58153;DHT22;43967;51.634;5.566;2022-11-20T22:27:47;18.70;64.00
58153;DHT22;43967;51.634;5.566;2022-11-20T22:32:49;18.80;64.00
58153;DHT22;43967;51.634;5.566;2022-11-20T22:37:50;18.70;63.80
58153;DHT22;43967;51.634;5.566;2022-11-20T22:42:52;18.80;63.80
58153;DHT22;43967;51.634;5.566;2022-11-20T22:47:53;18.70;63.70
58153;DHT22;43967;51.634;5.566;2022-11-20T22:52:54;18.70;63.50
58153;DHT22;43967;51.634;5.566;2022-11-20T22:57:55;18.70;63.40
58153;DHT22;43967;51.634;5.566;2022-11-20T23:02:56;18.70;63.30
58153;DHT22;43967;51.634;5.566;2022-11-20T23:07:57;18.70;63.20
58153;DHT22;43967;51.634;5.566;2022-11-20T23:12:58;18.70;63.10
58153;DHT22;43967;51.634;5.566;2022-11-20T23:17:59;18.70;63.00
58153;DHT22;43967;51.634;5.566;2022-11-20T23:23:01;18.70;63.00
58153;DHT22;43967;51.634;5.566;2022-11-20T23:28:02;18.70;62.90
58153;DHT22;43967;51.634;5.566;2022-11-20T23:33:03;18.70;62.90
58153;DHT22;43967;51.634;5.566;2022-11-20T23:38:04;18.70;62.90
58153;DHT22;43967;51.634;5.566;2022-11-20T23:43:05;18.70;62.80
58153;DHT22;43967;51.634;5.566;2022-11-20T23:48:07;18.60;62.60
58153;DHT22;43967;51.634;5.566;2022-11-20T23:53:08;18.60;62.50
58153;DHT22;43967;51.634;5.566;2022-11-20T23:58:10;18.60;62.50
